createdAt,value
2018-09-20T00:01:23.550Z,57.40
2018-09-20T00:05:26.876Z,57.80
2018-09-20T00:09:30.212Z,57.20
2018-09-20T00:13:33.565Z,57.70
2018-09-20T00:17:36.896Z,57.10
2018-09-20T00:21:40.194Z,61.90
2018-09-20T00:25:43.528Z,58.20
2018-09-20T00:29:46.857Z,57.50
2018-09-20T00:33:50.213Z,57.70
2018-09-20T00:37:53.547Z,58.10
2018-09-20T00:41:56.897Z,58.30
2018-09-20T00:46:00.227Z,57.60
2018-09-20T00:50:03.701Z,58.40
2018-09-20T00:54:07.808Z,58.80
2018-09-20T00:58:11.147Z,58.00
2018-09-20T01:02:14.468Z,58.70
2018-09-20T01:06:17.835Z,58.60
2018-09-20T01:10:21.307Z,57.70
2018-09-20T01:14:24.640Z,58.10
2018-09-20T01:18:27.970Z,58.20
2018-09-20T01:22:31.298Z,58.30
2018-09-20T01:26:34.652Z,57.80
2018-09-20T01:30:37.999Z,57.50
2018-09-20T01:34:41.323Z,58.80
2018-09-20T01:38:44.655Z,57.80
2018-09-20T01:42:47.988Z,58.20
2018-09-20T01:46:51.302Z,58.70
2018-09-20T01:50:54.630Z,57.80
2018-09-20T01:54:57.982Z,58.10
2018-09-20T01:59:01.339Z,61.30
2018-09-20T02:03:04.675Z,59.50
2018-09-20T02:07:08.022Z,58.20
2018-09-20T02:11:11.383Z,58.70
2018-09-20T02:15:14.765Z,59.10
2018-09-20T02:19:18.096Z,64.10
2018-09-20T02:23:21.444Z,63.40
2018-09-20T02:27:24.787Z,58.80
2018-09-20T02:31:28.127Z,58.80
2018-09-20T02:35:31.544Z,59.00
2018-09-20T02:44:37.680Z,58.80
2018-09-20T02:48:40.994Z,58.20
2018-09-20T02:52:44.344Z,58.20
2018-09-20T02:56:47.668Z,59.40
2018-09-20T03:00:51.118Z,59.30
2018-09-20T03:04:54.465Z,58.20
2018-09-20T03:08:57.768Z,59.10
2018-09-20T03:13:01.120Z,60.00
2018-09-20T03:17:04.455Z,59.00
2018-09-20T03:21:07.793Z,59.30
2018-09-20T03:25:11.162Z,61.10
2018-09-20T03:29:14.464Z,58.30
2018-09-20T03:33:17.816Z,61.30
2018-09-20T03:37:21.140Z,60.30
2018-09-20T03:41:24.493Z,60.90
2018-09-20T03:45:27.926Z,59.70
2018-09-20T03:49:31.259Z,58.50
2018-09-20T03:53:34.594Z,60.80
2018-09-20T03:57:37.948Z,58.80
2018-09-20T04:01:41.282Z,58.90
2018-09-20T04:05:44.638Z,59.00
2018-09-20T04:09:48.075Z,63.90
2018-09-20T04:13:51.390Z,59.50
2018-09-20T04:17:54.819Z,59.30
2018-09-20T04:21:58.175Z,64.90
2018-09-20T04:26:01.504Z,61.00
2018-09-20T04:30:05.245Z,60.90
2018-09-20T04:34:08.592Z,63.00
2018-09-20T04:38:12.040Z,63.40
2018-09-20T04:42:15.391Z,62.80
2018-09-20T04:46:18.935Z,71.50
2018-09-20T04:50:22.276Z,70.70
2018-09-20T04:54:25.578Z,66.10
2018-09-20T04:58:28.898Z,60.60
2018-09-20T05:02:32.244Z,59.30
2018-09-20T05:06:35.589Z,60.20
2018-09-20T05:10:38.955Z,59.80
2018-09-20T05:14:42.314Z,61.10
2018-09-20T05:18:45.662Z,62.70
2018-09-20T05:22:48.984Z,61.40
2018-09-20T05:26:52.318Z,60.70
2018-09-20T05:30:55.660Z,62.00
2018-09-20T05:34:59.007Z,60.90
2018-09-20T05:39:02.362Z,60.90
2018-09-20T05:43:05.715Z,60.70
2018-09-20T05:47:09.066Z,62.80
2018-09-20T05:51:12.407Z,63.40
2018-09-20T05:55:15.712Z,62.40
2018-09-20T06:00:02.491Z,61.20
2018-09-20T06:04:05.825Z,64.50
2018-09-20T06:08:09.183Z,62.20
2018-09-20T06:12:12.543Z,61.30
2018-09-20T06:16:15.901Z,63.80
2018-09-20T06:20:19.219Z,62.20
2018-09-20T06:24:22.630Z,60.90
2018-09-20T06:28:25.957Z,64.10
2018-09-20T06:32:29.579Z,62.30
2018-09-20T06:36:32.920Z,61.70
2018-09-20T06:40:36.268Z,64.70
2018-09-20T06:44:39.648Z,66.70
2018-09-20T06:48:43.027Z,62.00
2018-09-20T06:52:46.372Z,66.90
2018-09-20T06:56:49.811Z,61.30
2018-09-20T07:00:53.263Z,66.20
2018-09-20T07:04:56.619Z,64.60
2018-09-20T07:09:00.030Z,63.00
2018-09-20T07:13:12.088Z,62.60
2018-09-20T07:17:15.435Z,66.70
2018-09-20T07:21:18.774Z,65.30
2018-09-20T07:25:22.226Z,63.40
2018-09-20T07:29:25.469Z,64.00
2018-09-20T07:33:28.880Z,60.40
2018-09-20T07:37:32.239Z,61.80
2018-09-20T07:41:35.583Z,61.40
2018-09-20T07:45:38.969Z,63.80
2018-09-20T07:53:45.455Z,68.80
2018-09-20T07:57:48.764Z,63.20
2018-09-20T08:05:55.306Z,62.30
2018-09-20T08:09:58.676Z,61.30
2018-09-20T08:14:02.058Z,62.50
2018-09-20T08:18:05.414Z,62.10
2018-09-20T08:22:08.740Z,61.10
2018-09-20T08:26:12.091Z,60.60
2018-09-20T08:30:15.431Z,61.50
2018-09-20T08:34:18.862Z,60.10
2018-09-20T08:38:22.263Z,60.00
2018-09-20T08:42:25.599Z,59.70
2018-09-20T08:46:28.942Z,59.60
2018-09-20T08:50:32.291Z,59.30
2018-09-20T08:54:35.636Z,59.10
2018-09-20T08:58:38.992Z,58.90
2018-09-20T09:02:42.349Z,58.70
2018-09-20T09:06:45.708Z,58.40
2018-09-20T09:10:49.111Z,58.30
2018-09-20T09:22:58.856Z,84.30
2018-09-20T09:27:02.200Z,57.60
2018-09-20T09:31:05.548Z,57.40
2018-09-20T09:35:08.894Z,57.60
2018-09-20T09:39:13.170Z,57.20
2018-09-20T09:43:16.508Z,56.40
2018-09-20T09:47:19.883Z,56.50
2018-09-20T09:51:23.226Z,55.50
2018-09-20T09:55:26.592Z,56.60
2018-09-20T09:59:29.955Z,55.70
2018-09-20T10:03:33.279Z,55.40
2018-09-20T10:07:36.642Z,55.10
2018-09-20T10:11:40.405Z,55.40
2018-09-20T10:15:43.812Z,54.70
2018-09-20T10:19:47.272Z,54.40
2018-09-20T10:23:50.627Z,54.50
2018-09-20T10:27:53.940Z,53.10
2018-09-20T10:31:57.315Z,54.30
2018-09-20T10:36:00.705Z,53.10
2018-09-20T10:40:04.412Z,51.40
2018-09-20T10:44:07.798Z,52.00
2018-09-20T10:48:11.551Z,52.30
2018-09-20T10:52:14.927Z,52.40
2018-09-20T10:56:18.298Z,51.90
2018-09-20T11:00:21.640Z,51.60
2018-09-20T11:04:24.947Z,53.40
2018-09-20T11:08:28.298Z,52.20
2018-09-20T11:12:31.647Z,52.80
2018-09-20T11:16:34.983Z,51.90
2018-09-20T11:20:38.328Z,52.40
2018-09-20T11:24:42.201Z,53.00
2018-09-20T11:28:45.561Z,51.60
2018-09-20T11:32:48.915Z,52.40
2018-09-20T11:36:52.279Z,50.70
2018-09-20T11:40:55.614Z,51.00
2018-09-20T11:44:58.929Z,50.90
2018-09-20T11:49:02.310Z,49.50
2018-09-20T11:53:05.663Z,49.00
2018-09-20T11:57:09.015Z,50.40
2018-09-20T12:01:12.439Z,50.80
2018-09-20T12:05:15.777Z,51.00
2018-09-20T12:09:19.136Z,49.80
2018-09-20T12:13:22.494Z,50.70
2018-09-20T12:17:25.848Z,50.40
2018-09-20T12:21:29.287Z,51.00
2018-09-20T12:25:32.631Z,50.40
2018-09-20T12:29:36.001Z,50.80
2018-09-20T12:33:39.356Z,51.10
2018-09-20T12:37:42.699Z,50.00
2018-09-20T12:41:46.052Z,50.20
2018-09-20T12:45:49.601Z,49.40
2018-09-20T12:49:52.949Z,50.10
2018-09-20T12:53:56.348Z,49.80
2018-09-20T12:57:59.692Z,48.80
2018-09-20T13:02:03.095Z,49.50
2018-09-20T13:06:06.396Z,49.80
2018-09-20T13:10:09.788Z,49.60
2018-09-20T13:14:13.114Z,49.90
2018-09-20T13:18:16.479Z,50.20
2018-09-20T13:22:19.830Z,50.60
2018-09-20T13:26:23.199Z,49.40
2018-09-20T13:30:26.535Z,49.20
2018-09-20T13:34:29.883Z,49.60
2018-09-20T13:38:33.240Z,50.00
2018-09-20T13:42:36.664Z,47.80
2018-09-20T13:46:40.019Z,48.90
2018-09-20T13:50:43.428Z,49.70
2018-09-20T13:54:46.776Z,50.20
2018-09-20T13:58:50.098Z,48.50
2018-09-20T14:02:53.420Z,46.80
2018-09-20T14:06:56.741Z,48.10
2018-09-20T14:11:00.140Z,48.10
2018-09-20T14:15:03.856Z,48.30
2018-09-20T14:19:07.353Z,47.90
2018-09-20T14:23:10.727Z,48.60
2018-09-20T14:27:14.053Z,47.90
2018-09-20T14:31:17.347Z,48.20
2018-09-20T14:35:20.696Z,47.70
2018-09-20T14:39:24.044Z,48.00
2018-09-20T14:43:27.375Z,48.10
2018-09-20T14:47:30.746Z,47.30
2018-09-20T14:51:34.067Z,48.40
2018-09-20T14:55:37.432Z,48.50
2018-09-20T14:59:40.806Z,47.80
2018-09-20T15:03:44.122Z,47.20
2018-09-20T15:07:47.467Z,47.20
2018-09-20T15:11:50.787Z,48.00
2018-09-20T15:15:54.104Z,46.30
2018-09-20T15:19:57.485Z,47.30
2018-09-20T15:24:00.830Z,48.40
2018-09-20T15:28:04.196Z,48.80
2018-09-20T15:32:07.858Z,49.10
2018-09-20T15:36:11.259Z,47.10
2018-09-20T15:40:14.610Z,49.10
2018-09-20T15:44:18.026Z,48.50
2018-09-20T15:48:21.408Z,48.30
2018-09-20T15:52:24.822Z,47.80
2018-09-20T15:56:28.259Z,46.70
2018-09-20T16:00:31.588Z,46.30
2018-09-20T16:04:34.931Z,47.60
